sensor_id;sensor_type;location;lat;lon;timestamp;temperature;humidity
29687;DHT22;16599;47.078;15.536;2022-10-16T00:01:16;8.80;99.90
29687;DHT22;16599;47.078;15.536;2022-10-16T00:03:44;8.70;99.90
29687;DHT22;16599;47.078;15.536;2022-10-16T00:06:12;8.60;99.90
29687;DHT22;16599;47.078;15.536;2022-10-16T00:08:39;8.40;99.90
29687;DHT22;16599;47.078;15.536;2022-10-16T00:11:09;8.30;99.90
29687;DHT22;16599;47.078;15.536;2022-10-16T00:13:39;8.40;99.90
29687;DHT22;16599;47.078;15.536;2022-10-16T00:16:07;8.50;99.90
29687;DHT22;16599;47.078;15.536;2022-10-16T00:18:35;8.60;99.90
29687;DHT22;16599;47.078;15.536;2022-10-16T00:21:08;8.70;99.90
29687;DHT22;16599;47.078;15.536;2022-10-16T00:23:36;8.80;99.90
29687;DHT22;16599;47.078;15.536;2022-10-16T00:26:06;8.70;99.90
29687;DHT22;16599;47.078;15.536;2022-10-16T00:28:34;8.80;99.90
29687;DHT22;16599;47.078;15.536;2022-10-16T00:31:06;8.80;99.90
29687;DHT22;16599;47.078;15.536;2022-10-16T00:33:34;8.90;99.90
29687;DHT22;16599;47.078;15.536;2022-10-16T00:36:03;8.90;99.90
29687;DHT22;16599;47.078;15.536;2022-10-16T00:38:31;9.00;99.90
29687;DHT22;16599;47.078;15.536;2022-10-16T00:40:58;8.90;99.90
29687;DHT22;16599;47.078;15.536;2022-10-16T00:43:42;9.00;99.90
29687;DHT22;16599;47.078;15.536;2022-10-16T00:51:25;8.90;99.90
29687;DHT22;16599;47.078;15.536;2022-10-16T00:53:55;9.00;99.90
29687;DHT22;16599;47.078;15.536;2022-10-16T00:56:21;9.00;99.90
29687;DHT22;16599;47.078;15.536;2022-10-16T00:58:49;9.10;99.90
29687;DHT22;16599;47.078;15.536;2022-10-16T01:01:16;9.10;99.90
29687;DHT22;16599;47.078;15.536;2022-10-16T01:03:43;9.20;99.90
29687;DHT22;16599;47.078;15.536;2022-10-16T01:06:31;9.10;99.90
29687;DHT22;16599;47.078;15.536;2022-10-16T01:11:44;9.30;99.90
29687;DHT22;16599;47.078;15.536;2022-10-16T01:14:26;9.20;99.90
29687;DHT22;16599;47.078;15.536;2022-10-16T01:17:11;9.20;99.90
29687;DHT22;16599;47.078;15.536;2022-10-16T01:20:08;9.20;99.90
29687;DHT22;16599;47.078;15.536;2022-10-16T01:25:47;9.30;99.90
29687;DHT22;16599;47.078;15.536;2022-10-16T01:28:09;9.20;99.90
29687;DHT22;16599;47.078;15.536;2022-10-16T01:30:40;9.20;99.90
29687;DHT22;16599;47.078;15.536;2022-10-16T01:33:21;9.10;99.90
29687;DHT22;16599;47.078;15.536;2022-10-16T01:35:54;9.10;99.90
29687;DHT22;16599;47.078;15.536;2022-10-16T01:38:30;9.20;99.90
29687;DHT22;16599;47.078;15.536;2022-10-16T01:41:07;9.10;99.90
29687;DHT22;16599;47.078;15.536;2022-10-16T01:43:42;9.20;99.90
29687;DHT22;16599;47.078;15.536;2022-10-16T01:46:12;9.20;99.90
29687;DHT22;16599;47.078;15.536;2022-10-16T01:48:41;9.10;99.90
29687;DHT22;16599;47.078;15.536;2022-10-16T01:51:13;9.10;99.90
29687;DHT22;16599;47.078;15.536;2022-10-16T01:53:44;8.90;99.90
29687;DHT22;16599;47.078;15.536;2022-10-16T01:56:13;9.00;99.90
29687;DHT22;16599;47.078;15.536;2022-10-16T01:58:46;9.10;99.90
29687;DHT22;16599;47.078;15.536;2022-10-16T02:01:13;9.10;99.90
29687;DHT22;16599;47.078;15.536;2022-10-16T02:03:43;9.00;99.90
29687;DHT22;16599;47.078;15.536;2022-10-16T02:06:11;8.80;99.90
29687;DHT22;16599;47.078;15.536;2022-10-16T02:08:38;8.80;99.90
29687;DHT22;16599;47.078;15.536;2022-10-16T02:11:07;8.90;99.90
29687;DHT22;16599;47.078;15.536;2022-10-16T02:13:39;8.90;99.90
29687;DHT22;16599;47.078;15.536;2022-10-16T02:16:06;8.90;99.90
29687;DHT22;16599;47.078;15.536;2022-10-16T02:18:33;9.00;99.90
29687;DHT22;16599;47.078;15.536;2022-10-16T02:26:30;9.10;99.90
29687;DHT22;16599;47.078;15.536;2022-10-16T02:29:02;9.10;99.90
29687;DHT22;16599;47.078;15.536;2022-10-16T02:31:35;9.20;99.90
29687;DHT22;16599;47.078;15.536;2022-10-16T02:34:05;9.30;99.90
29687;DHT22;16599;47.078;15.536;2022-10-16T02:36:34;9.40;99.90
29687;DHT22;16599;47.078;15.536;2022-10-16T02:39:03;9.40;99.90
29687;DHT22;16599;47.078;15.536;2022-10-16T02:41:31;9.20;99.90
29687;DHT22;16599;47.078;15.536;2022-10-16T02:43:58;9.10;99.90
29687;DHT22;16599;47.078;15.536;2022-10-16T02:46:25;9.20;99.90
29687;DHT22;16599;47.078;15.536;2022-10-16T02:48:52;9.20;99.90
29687;DHT22;16599;47.078;15.536;2022-10-16T02:51:18;9.20;99.90
29687;DHT22;16599;47.078;15.536;2022-10-16T02:53:45;9.20;99.90
29687;DHT22;16599;47.078;15.536;2022-10-16T02:56:12;9.20;99.90
29687;DHT22;16599;47.078;15.536;2022-10-16T02:58:39;9.10;99.90
29687;DHT22;16599;47.078;15.536;2022-10-16T03:01:06;9.10;99.90
29687;DHT22;16599;47.078;15.536;2022-10-16T03:03:33;9.10;99.90
29687;DHT22;16599;47.078;15.536;2022-10-16T03:05:59;9.10;99.90
29687;DHT22;16599;47.078;15.536;2022-10-16T03:08:26;9.10;99.90
29687;DHT22;16599;47.078;15.536;2022-10-16T03:10:53;9.10;99.90
29687;DHT22;16599;47.078;15.536;2022-10-16T03:13:20;9.10;99.90
29687;DHT22;16599;47.078;15.536;2022-10-16T03:15:47;9.10;99.90
29687;DHT22;16599;47.078;15.536;2022-10-16T03:18:14;8.90;99.90
29687;DHT22;16599;47.078;15.536;2022-10-16T03:20:42;9.00;99.90
29687;DHT22;16599;47.078;15.536;2022-10-16T03:23:09;8.80;99.90
29687;DHT22;16599;47.078;15.536;2022-10-16T03:25:36;8.70;99.90
29687;DHT22;16599;47.078;15.536;2022-10-16T03:28:03;8.70;99.90
29687;DHT22;16599;47.078;15.536;2022-10-16T03:30:30;8.70;99.90
29687;DHT22;16599;47.078;15.536;2022-10-16T03:32:57;8.70;99.90
29687;DHT22;16599;47.078;15.536;2022-10-16T03:35:24;8.50;99.90
29687;DHT22;16599;47.078;15.536;2022-10-16T03:37:51;8.50;99.90
29687;DHT22;16599;47.078;15.536;2022-10-16T03:40:19;8.60;99.90
29687;DHT22;16599;47.078;15.536;2022-10-16T03:42:46;8.30;99.90
29687;DHT22;16599;47.078;15.536;2022-10-16T03:45:12;8.40;99.90
29687;DHT22;16599;47.078;15.536;2022-10-16T03:47:39;8.60;99.90
29687;DHT22;16599;47.078;15.536;2022-10-16T03:50:07;8.60;99.90
29687;DHT22;16599;47.078;15.536;2022-10-16T03:52:34;8.60;99.90
29687;DHT22;16599;47.078;15.536;2022-10-16T03:55:01;8.70;99.90
29687;DHT22;16599;47.078;15.536;2022-10-16T03:57:28;8.80;99.90
29687;DHT22;16599;47.078;15.536;2022-10-16T03:59:55;8.80;99.90
29687;DHT22;16599;47.078;15.536;2022-10-16T04:02:22;8.60;99.90
29687;DHT22;16599;47.078;15.536;2022-10-16T04:04:49;8.40;99.90
29687;DHT22;16599;47.078;15.536;2022-10-16T04:07:16;8.50;99.90
29687;DHT22;16599;47.078;15.536;2022-10-16T04:09:42;8.60;99.90
29687;DHT22;16599;47.078;15.536;2022-10-16T04:12:09;8.70;99.90
29687;DHT22;16599;47.078;15.536;2022-10-16T04:14:36;8.80;99.90
29687;DHT22;16599;47.078;15.536;2022-10-16T04:17:03;8.70;99.90
29687;DHT22;16599;47.078;15.536;2022-10-16T04:19:30;8.60;99.90
29687;DHT22;16599;47.078;15.536;2022-10-16T04:21:57;8.70;99.90
29687;DHT22;16599;47.078;15.536;2022-10-16T04:24:23;8.90;99.90
29687;DHT22;16599;47.078;15.536;2022-10-16T04:26:50;9.00;99.90
29687;DHT22;16599;47.078;15.536;2022-10-16T04:29:17;9.00;99.90
29687;DHT22;16599;47.078;15.536;2022-10-16T04:31:44;8.90;99.90
29687;DHT22;16599;47.078;15.536;2022-10-16T04:34:11;8.80;99.90
29687;DHT22;16599;47.078;15.536;2022-10-16T04:36:38;8.90;99.90
29687;DHT22;16599;47.078;15.536;2022-10-16T04:39:04;9.00;99.90
29687;DHT22;16599;47.078;15.536;2022-10-16T04:41:31;9.00;99.90
29687;DHT22;16599;47.078;15.536;2022-10-16T04:43:58;9.00;99.90
29687;DHT22;16599;47.078;15.536;2022-10-16T04:46:25;9.10;99.90
29687;DHT22;16599;47.078;15.536;2022-10-16T04:48:51;9.10;99.90
29687;DHT22;16599;47.078;15.536;2022-10-16T04:51:18;9.10;99.90
29687;DHT22;16599;47.078;15.536;2022-10-16T04:53:45;9.10;99.90
29687;DHT22;16599;47.078;15.536;2022-10-16T04:56:12;9.10;99.90
29687;DHT22;16599;47.078;15.536;2022-10-16T04:58:39;9.00;99.90
29687;DHT22;16599;47.078;15.536;2022-10-16T05:01:05;9.00;99.90
29687;DHT22;16599;47.078;15.536;2022-10-16T05:03:32;9.00;99.90
29687;DHT22;16599;47.078;15.536;2022-10-16T05:05:59;9.00;99.90
29687;DHT22;16599;47.078;15.536;2022-10-16T05:08:26;8.90;99.90
29687;DHT22;16599;47.078;15.536;2022-10-16T05:10:53;9.00;99.90
29687;DHT22;16599;47.078;15.536;2022-10-16T05:13:19;9.00;99.90
29687;DHT22;16599;47.078;15.536;2022-10-16T05:15:47;9.00;99.90
29687;DHT22;16599;47.078;15.536;2022-10-16T05:18:15;9.00;99.90
29687;DHT22;16599;47.078;15.536;2022-10-16T05:20:42;8.90;99.90
29687;DHT22;16599;47.078;15.536;2022-10-16T05:23:09;9.00;99.90
29687;DHT22;16599;47.078;15.536;2022-10-16T05:25:38;9.00;99.90
29687;DHT22;16599;47.078;15.536;2022-10-16T05:28:05;9.00;99.90
29687;DHT22;16599;47.078;15.536;2022-10-16T05:30:32;9.00;99.90
29687;DHT22;16599;47.078;15.536;2022-10-16T05:32:59;9.00;99.90
29687;DHT22;16599;47.078;15.536;2022-10-16T05:35:26;9.10;99.90
29687;DHT22;16599;47.078;15.536;2022-10-16T05:37:53;9.30;99.90
29687;DHT22;16599;47.078;15.536;2022-10-16T05:40:19;9.30;99.90
29687;DHT22;16599;47.078;15.536;2022-10-16T05:42:46;9.30;99.90
29687;DHT22;16599;47.078;15.536;2022-10-16T05:45:13;9.30;99.90
29687;DHT22;16599;47.078;15.536;2022-10-16T05:47:40;9.30;99.90
29687;DHT22;16599;47.078;15.536;2022-10-16T05:50:07;9.40;99.90
29687;DHT22;16599;47.078;15.536;2022-10-16T05:52:34;9.30;99.90
29687;DHT22;16599;47.078;15.536;2022-10-16T05:55:01;9.20;99.90
29687;DHT22;16599;47.078;15.536;2022-10-16T05:57:28;9.20;99.90
29687;DHT22;16599;47.078;15.536;2022-10-16T05:59:55;9.20;99.90
29687;DHT22;16599;47.078;15.536;2022-10-16T06:02:22;9.20;99.90
29687;DHT22;16599;47.078;15.536;2022-10-16T06:04:49;9.20;99.90
29687;DHT22;16599;47.078;15.536;2022-10-16T06:07:17;9.30;99.90
29687;DHT22;16599;47.078;15.536;2022-10-16T06:09:47;9.40;99.90
29687;DHT22;16599;47.078;15.536;2022-10-16T06:12:14;9.40;99.90
29687;DHT22;16599;47.078;15.536;2022-10-16T06:14:40;9.50;99.90
29687;DHT22;16599;47.078;15.536;2022-10-16T06:17:07;9.50;99.90
29687;DHT22;16599;47.078;15.536;2022-10-16T06:19:34;9.50;99.90
29687;DHT22;16599;47.078;15.536;2022-10-16T06:22:01;9.40;99.90
29687;DHT22;16599;47.078;15.536;2022-10-16T06:24:29;9.40;99.90
29687;DHT22;16599;47.078;15.536;2022-10-16T06:26:55;9.30;99.90
29687;DHT22;16599;47.078;15.536;2022-10-16T06:29:22;9.30;99.90
29687;DHT22;16599;47.078;15.536;2022-10-16T06:31:49;9.30;99.90
29687;DHT22;16599;47.078;15.536;2022-10-16T06:34:16;9.40;99.90
29687;DHT22;16599;47.078;15.536;2022-10-16T06:36:43;9.40;99.90
29687;DHT22;16599;47.078;15.536;2022-10-16T06:39:10;9.50;99.90
29687;DHT22;16599;47.078;15.536;2022-10-16T06:41:36;9.50;99.90
29687;DHT22;16599;47.078;15.536;2022-10-16T06:44:07;9.60;99.90
29687;DHT22;16599;47.078;15.536;2022-10-16T06:46:34;9.60;99.90
29687;DHT22;16599;47.078;15.536;2022-10-16T06:49:01;9.60;99.90
29687;DHT22;16599;47.078;15.536;2022-10-16T06:51:28;9.70;99.90
29687;DHT22;16599;47.078;15.536;2022-10-16T06:53:55;9.80;99.90
29687;DHT22;16599;47.078;15.536;2022-10-16T06:56:31;9.80;99.90
29687;DHT22;16599;47.078;15.536;2022-10-16T06:58:58;9.90;99.90
29687;DHT22;16599;47.078;15.536;2022-10-16T07:01:27;9.90;99.90
29687;DHT22;16599;47.078;15.536;2022-10-16T07:03:54;10.00;99.90
29687;DHT22;16599;47.078;15.536;2022-10-16T07:06:23;10.10;99.90
29687;DHT22;16599;47.078;15.536;2022-10-16T07:08:51;10.10;99.90
29687;DHT22;16599;47.078;15.536;2022-10-16T07:11:21;10.20;99.90
29687;DHT22;16599;47.078;15.536;2022-10-16T07:13:49;10.30;99.90
29687;DHT22;16599;47.078;15.536;2022-10-16T07:16:47;10.30;99.90
29687;DHT22;16599;47.078;15.536;2022-10-16T07:19:14;10.40;99.90
29687;DHT22;16599;47.078;15.536;2022-10-16T07:21:42;10.60;99.90
29687;DHT22;16599;47.078;15.536;2022-10-16T07:24:14;10.70;99.90
29687;DHT22;16599;47.078;15.536;2022-10-16T07:26:43;10.70;99.90
29687;DHT22;16599;47.078;15.536;2022-10-16T07:29:19;10.80;99.90
29687;DHT22;16599;47.078;15.536;2022-10-16T07:31:47;11.00;99.90
29687;DHT22;16599;47.078;15.536;2022-10-16T07:34:15;11.20;99.90
29687;DHT22;16599;47.078;15.536;2022-10-16T07:36:42;11.40;99.90
29687;DHT22;16599;47.078;15.536;2022-10-16T07:39:09;11.50;99.90
29687;DHT22;16599;47.078;15.536;2022-10-16T07:41:36;11.50;99.90
29687;DHT22;16599;47.078;15.536;2022-10-16T07:44:04;11.50;99.90
29687;DHT22;16599;47.078;15.536;2022-10-16T07:46:31;11.60;99.90
29687;DHT22;16599;47.078;15.536;2022-10-16T07:49:00;11.70;99.90
29687;DHT22;16599;47.078;15.536;2022-10-16T07:51:27;11.80;99.90
29687;DHT22;16599;47.078;15.536;2022-10-16T07:53:54;11.90;99.90
29687;DHT22;16599;47.078;15.536;2022-10-16T07:56:21;12.10;99.90
29687;DHT22;16599;47.078;15.536;2022-10-16T07:58:49;12.20;99.90
29687;DHT22;16599;47.078;15.536;2022-10-16T08:01:17;12.30;99.90
29687;DHT22;16599;47.078;15.536;2022-10-16T08:03:49;12.40;99.90
29687;DHT22;16599;47.078;15.536;2022-10-16T08:06:17;12.50;99.90
29687;DHT22;16599;47.078;15.536;2022-10-16T08:08:50;12.60;99.90
29687;DHT22;16599;47.078;15.536;2022-10-16T08:11:17;12.80;99.90
29687;DHT22;16599;47.078;15.536;2022-10-16T08:13:44;12.90;99.90
29687;DHT22;16599;47.078;15.536;2022-10-16T08:18:56;13.10;99.90
29687;DHT22;16599;47.078;15.536;2022-10-16T08:43:24;14.40;99.90
29687;DHT22;16599;47.078;15.536;2022-10-16T08:57:11;15.30;99.90
29687;DHT22;16599;47.078;15.536;2022-10-16T08:59:39;15.60;99.90
29687;DHT22;16599;47.078;15.536;2022-10-16T09:13:28;16.40;99.90
29687;DHT22;16599;47.078;15.536;2022-10-16T09:18:41;16.70;99.90
29687;DHT22;16599;47.078;15.536;2022-10-16T09:23:51;16.70;99.90
29687;DHT22;16599;47.078;15.536;2022-10-16T09:26:18;16.80;99.90
29687;DHT22;16599;47.078;15.536;2022-10-16T09:28:52;16.90;99.90
29687;DHT22;16599;47.078;15.536;2022-10-16T09:33:52;17.10;99.90
29687;DHT22;16599;47.078;15.536;2022-10-16T09:36:21;17.00;99.90
29687;DHT22;16599;47.078;15.536;2022-10-16T09:39:08;17.30;99.90
29687;DHT22;16599;47.078;15.536;2022-10-16T09:41:40;17.50;99.90
29687;DHT22;16599;47.078;15.536;2022-10-16T09:44:34;17.40;99.90
29687;DHT22;16599;47.078;15.536;2022-10-16T09:50:05;17.60;99.90
29687;DHT22;16599;47.078;15.536;2022-10-16T09:52:33;17.70;99.90
29687;DHT22;16599;47.078;15.536;2022-10-16T09:55:16;17.70;99.90
29687;DHT22;16599;47.078;15.536;2022-10-16T09:57:51;17.70;99.90
29687;DHT22;16599;47.078;15.536;2022-10-16T10:05:42;18.20;99.90
29687;DHT22;16599;47.078;15.536;2022-10-16T10:08:34;18.20;99.90
29687;DHT22;16599;47.078;15.536;2022-10-16T10:27:18;18.40;99.90
29687;DHT22;16599;47.078;15.536;2022-10-16T10:29:58;18.30;99.90
29687;DHT22;16599;47.078;15.536;2022-10-16T10:32:51;18.50;99.90
29687;DHT22;16599;47.078;15.536;2022-10-16T10:47:01;18.70;99.90
29687;DHT22;16599;47.078;15.536;2022-10-16T10:49:57;18.80;99.90
29687;DHT22;16599;47.078;15.536;2022-10-16T10:52:56;19.20;99.90
29687;DHT22;16599;47.078;15.536;2022-10-16T10:56:00;19.20;99.90
29687;DHT22;16599;47.078;15.536;2022-10-16T10:58:35;19.10;99.90
29687;DHT22;16599;47.078;15.536;2022-10-16T11:01:12;19.10;99.90
29687;DHT22;16599;47.078;15.536;2022-10-16T11:06:52;19.20;99.90
29687;DHT22;16599;47.078;15.536;2022-10-16T11:09:25;19.40;99.90
29687;DHT22;16599;47.078;15.536;2022-10-16T11:15:07;19.40;99.90
29687;DHT22;16599;47.078;15.536;2022-10-16T11:20:23;19.80;99.90
29687;DHT22;16599;47.078;15.536;2022-10-16T11:23:24;19.60;99.90
29687;DHT22;16599;47.078;15.536;2022-10-16T11:28:32;19.60;99.90
29687;DHT22;16599;47.078;15.536;2022-10-16T11:31:19;19.40;99.90
29687;DHT22;16599;47.078;15.536;2022-10-16T11:33:59;19.60;99.90
29687;DHT22;16599;47.078;15.536;2022-10-16T11:36:49;19.70;99.90
29687;DHT22;16599;47.078;15.536;2022-10-16T11:39:24;19.80;99.90
29687;DHT22;16599;47.078;15.536;2022-10-16T12:09:04;20.30;99.90
29687;DHT22;16599;47.078;15.536;2022-10-16T12:35:25;20.60;99.60
29687;DHT22;16599;47.078;15.536;2022-10-16T12:37:53;20.50;99.90
29687;DHT22;16599;47.078;15.536;2022-10-16T12:40:26;20.70;99.60
29687;DHT22;16599;47.078;15.536;2022-10-16T12:42:53;20.70;99.90
29687;DHT22;16599;47.078;15.536;2022-10-16T12:45:33;20.80;99.40
29687;DHT22;16599;47.078;15.536;2022-10-16T12:48:02;20.90;98.60
29687;DHT22;16599;47.078;15.536;2022-10-16T12:50:36;21.00;97.80
29687;DHT22;16599;47.078;15.536;2022-10-16T12:53:36;21.00;98.70
29687;DHT22;16599;47.078;15.536;2022-10-16T12:56:24;21.00;98.60
29687;DHT22;16599;47.078;15.536;2022-10-16T12:59:38;21.10;98.60
29687;DHT22;16599;47.078;15.536;2022-10-16T13:07:32;21.00;99.20
29687;DHT22;16599;47.078;15.536;2022-10-16T13:10:28;20.80;96.90
29687;DHT22;16599;47.078;15.536;2022-10-16T13:18:55;21.00;98.60
29687;DHT22;16599;47.078;15.536;2022-10-16T13:21:32;20.80;98.20
29687;DHT22;16599;47.078;15.536;2022-10-16T13:24:55;20.70;98.50
29687;DHT22;16599;47.078;15.536;2022-10-16T13:27:20;20.80;98.80
29687;DHT22;16599;47.078;15.536;2022-10-16T13:30:02;21.00;98.10
29687;DHT22;16599;47.078;15.536;2022-10-16T13:32:35;21.20;98.00
29687;DHT22;16599;47.078;15.536;2022-10-16T13:35:02;21.20;97.50
29687;DHT22;16599;47.078;15.536;2022-10-16T13:37:30;21.10;97.60
29687;DHT22;16599;47.078;15.536;2022-10-16T13:42:46;21.20;97.00
29687;DHT22;16599;47.078;15.536;2022-10-16T13:45:22;20.90;98.60
29687;DHT22;16599;47.078;15.536;2022-10-16T13:47:49;20.90;96.90
29687;DHT22;16599;47.078;15.536;2022-10-16T13:50:18;21.00;99.00
29687;DHT22;16599;47.078;15.536;2022-10-16T13:52:45;21.00;96.20
29687;DHT22;16599;47.078;15.536;2022-10-16T13:55:17;20.90;96.90
29687;DHT22;16599;47.078;15.536;2022-10-16T13:57:44;20.80;97.80
29687;DHT22;16599;47.078;15.536;2022-10-16T14:00:22;20.70;98.00
29687;DHT22;16599;47.078;15.536;2022-10-16T14:03:01;20.50;97.80
29687;DHT22;16599;47.078;15.536;2022-10-16T14:05:28;20.50;99.10
29687;DHT22;16599;47.078;15.536;2022-10-16T14:07:55;20.40;99.10
29687;DHT22;16599;47.078;15.536;2022-10-16T14:10:27;20.40;99.30
29687;DHT22;16599;47.078;15.536;2022-10-16T14:13:02;20.30;99.90
29687;DHT22;16599;47.078;15.536;2022-10-16T14:15:31;20.10;99.90
29687;DHT22;16599;47.078;15.536;2022-10-16T14:17:59;20.00;99.90
29687;DHT22;16599;47.078;15.536;2022-10-16T14:20:29;20.10;99.90
29687;DHT22;16599;47.078;15.536;2022-10-16T14:23:29;20.00;99.60
29687;DHT22;16599;47.078;15.536;2022-10-16T14:28:37;19.80;99.90
29687;DHT22;16599;47.078;15.536;2022-10-16T14:33:46;19.70;99.90
29687;DHT22;16599;47.078;15.536;2022-10-16T14:36:14;19.70;99.90
29687;DHT22;16599;47.078;15.536;2022-10-16T14:39:20;19.60;99.90
29687;DHT22;16599;47.078;15.536;2022-10-16T14:41:50;19.40;99.90
29687;DHT22;16599;47.078;15.536;2022-10-16T14:44:18;19.20;99.90
29687;DHT22;16599;47.078;15.536;2022-10-16T14:46:46;19.30;99.90
29687;DHT22;16599;47.078;15.536;2022-10-16T14:49:17;19.30;99.90
29687;DHT22;16599;47.078;15.536;2022-10-16T14:51:47;19.20;99.90
29687;DHT22;16599;47.078;15.536;2022-10-16T14:54:16;19.10;99.90
29687;DHT22;16599;47.078;15.536;2022-10-16T14:56:50;19.00;99.90
29687;DHT22;16599;47.078;15.536;2022-10-16T14:59:23;18.90;99.90
29687;DHT22;16599;47.078;15.536;2022-10-16T15:01:51;18.80;99.90
29687;DHT22;16599;47.078;15.536;2022-10-16T15:04:18;18.70;99.90
29687;DHT22;16599;47.078;15.536;2022-10-16T15:06:46;18.70;99.90
29687;DHT22;16599;47.078;15.536;2022-10-16T15:09:13;18.50;99.90
29687;DHT22;16599;47.078;15.536;2022-10-16T15:11:40;18.30;99.90
29687;DHT22;16599;47.078;15.536;2022-10-16T15:14:11;18.20;99.90
29687;DHT22;16599;47.078;15.536;2022-10-16T15:16:39;18.10;99.90
29687;DHT22;16599;47.078;15.536;2022-10-16T15:19:06;18.10;99.90
29687;DHT22;16599;47.078;15.536;2022-10-16T15:21:33;18.20;99.90
29687;DHT22;16599;47.078;15.536;2022-10-16T15:24:00;18.10;99.90
29687;DHT22;16599;47.078;15.536;2022-10-16T15:26:28;17.90;99.90
29687;DHT22;16599;47.078;15.536;2022-10-16T15:28:56;17.80;99.90
29687;DHT22;16599;47.078;15.536;2022-10-16T15:31:24;17.60;99.90
29687;DHT22;16599;47.078;15.536;2022-10-16T15:33:52;17.30;99.90
29687;DHT22;16599;47.078;15.536;2022-10-16T15:36:30;17.20;99.90
29687;DHT22;16599;47.078;15.536;2022-10-16T15:38:57;17.10;99.90
29687;DHT22;16599;47.078;15.536;2022-10-16T15:41:24;17.00;99.90
29687;DHT22;16599;47.078;15.536;2022-10-16T15:43:52;16.80;99.90
29687;DHT22;16599;47.078;15.536;2022-10-16T15:46:20;16.50;99.90
29687;DHT22;16599;47.078;15.536;2022-10-16T15:48:49;16.50;99.90
29687;DHT22;16599;47.078;15.536;2022-10-16T15:51:18;16.30;99.90
29687;DHT22;16599;47.078;15.536;2022-10-16T15:56:26;16.10;99.90
29687;DHT22;16599;47.078;15.536;2022-10-16T15:58:55;16.10;99.90
29687;DHT22;16599;47.078;15.536;2022-10-16T16:01:24;15.80;99.90
29687;DHT22;16599;47.078;15.536;2022-10-16T16:03:55;15.50;99.90
29687;DHT22;16599;47.078;15.536;2022-10-16T16:06:22;15.20;99.90
29687;DHT22;16599;47.078;15.536;2022-10-16T16:08:51;14.80;99.90
29687;DHT22;16599;47.078;15.536;2022-10-16T16:11:19;14.70;99.90
29687;DHT22;16599;47.078;15.536;2022-10-16T16:13:46;14.60;99.90
29687;DHT22;16599;47.078;15.536;2022-10-16T16:16:15;14.70;99.90
29687;DHT22;16599;47.078;15.536;2022-10-16T16:18:43;14.80;99.90
29687;DHT22;16599;47.078;15.536;2022-10-16T16:21:11;14.70;99.90
29687;DHT22;16599;47.078;15.536;2022-10-16T16:23:38;14.70;99.90
29687;DHT22;16599;47.078;15.536;2022-10-16T16:26:18;14.40;99.90
29687;DHT22;16599;47.078;15.536;2022-10-16T16:28:53;14.10;99.90
29687;DHT22;16599;47.078;15.536;2022-10-16T16:31:24;14.00;99.90
29687;DHT22;16599;47.078;15.536;2022-10-16T16:33:51;13.90;99.90
29687;DHT22;16599;47.078;15.536;2022-10-16T16:36:18;13.90;99.90
29687;DHT22;16599;47.078;15.536;2022-10-16T16:38:46;14.10;99.90
29687;DHT22;16599;47.078;15.536;2022-10-16T16:41:24;14.30;99.90
29687;DHT22;16599;47.078;15.536;2022-10-16T16:43:53;14.10;99.90
29687;DHT22;16599;47.078;15.536;2022-10-16T16:46:20;13.60;99.90
29687;DHT22;16599;47.078;15.536;2022-10-16T16:48:48;13.20;99.90
29687;DHT22;16599;47.078;15.536;2022-10-16T16:51:18;13.20;99.90
29687;DHT22;16599;47.078;15.536;2022-10-16T16:54:05;13.30;99.90
29687;DHT22;16599;47.078;15.536;2022-10-16T16:56:52;13.40;99.90
29687;DHT22;16599;47.078;15.536;2022-10-16T16:59:25;13.60;99.90
29687;DHT22;16599;47.078;15.536;2022-10-16T17:01:51;13.70;99.90
29687;DHT22;16599;47.078;15.536;2022-10-16T17:04:22;13.70;99.90
29687;DHT22;16599;47.078;15.536;2022-10-16T17:06:49;13.20;99.90
29687;DHT22;16599;47.078;15.536;2022-10-16T17:09:16;13.10;99.90
29687;DHT22;16599;47.078;15.536;2022-10-16T17:11:43;13.20;99.90
29687;DHT22;16599;47.078;15.536;2022-10-16T17:14:11;13.30;99.90
29687;DHT22;16599;47.078;15.536;2022-10-16T17:16:39;13.30;99.90
29687;DHT22;16599;47.078;15.536;2022-10-16T17:19:08;13.30;99.90
29687;DHT22;16599;47.078;15.536;2022-10-16T17:21:36;12.90;99.90
29687;DHT22;16599;47.078;15.536;2022-10-16T17:24:04;12.80;99.90
29687;DHT22;16599;47.078;15.536;2022-10-16T17:26:32;12.90;99.90
29687;DHT22;16599;47.078;15.536;2022-10-16T17:29:00;13.00;99.90
29687;DHT22;16599;47.078;15.536;2022-10-16T17:31:32;13.10;99.90
29687;DHT22;16599;47.078;15.536;2022-10-16T17:34:01;13.00;99.90
29687;DHT22;16599;47.078;15.536;2022-10-16T17:36:30;12.90;99.90
29687;DHT22;16599;47.078;15.536;2022-10-16T17:38:59;12.60;99.90
29687;DHT22;16599;47.078;15.536;2022-10-16T17:41:31;12.50;99.90
29687;DHT22;16599;47.078;15.536;2022-10-16T17:43:58;12.60;99.90
29687;DHT22;16599;47.078;15.536;2022-10-16T17:46:25;12.60;99.90
29687;DHT22;16599;47.078;15.536;2022-10-16T17:48:53;12.70;99.90
29687;DHT22;16599;47.078;15.536;2022-10-16T17:51:22;12.80;99.90
29687;DHT22;16599;47.078;15.536;2022-10-16T17:53:54;12.70;99.90
29687;DHT22;16599;47.078;15.536;2022-10-16T17:56:22;12.50;99.90
29687;DHT22;16599;47.078;15.536;2022-10-16T17:58:52;12.30;99.90
29687;DHT22;16599;47.078;15.536;2022-10-16T18:03:55;12.20;99.90
29687;DHT22;16599;47.078;15.536;2022-10-16T18:06:23;12.30;99.90
29687;DHT22;16599;47.078;15.536;2022-10-16T18:08:51;12.30;99.90
29687;DHT22;16599;47.078;15.536;2022-10-16T18:11:19;12.10;99.90
29687;DHT22;16599;47.078;15.536;2022-10-16T18:13:46;12.10;99.90
29687;DHT22;16599;47.078;15.536;2022-10-16T18:16:14;12.20;99.90
29687;DHT22;16599;47.078;15.536;2022-10-16T18:18:43;12.10;99.90
29687;DHT22;16599;47.078;15.536;2022-10-16T18:21:15;11.90;99.90
29687;DHT22;16599;47.078;15.536;2022-10-16T18:23:43;11.90;99.90
29687;DHT22;16599;47.078;15.536;2022-10-16T18:26:17;11.90;99.90
29687;DHT22;16599;47.078;15.536;2022-10-16T18:28:44;12.00;99.90
29687;DHT22;16599;47.078;15.536;2022-10-16T18:31:14;11.90;99.90
29687;DHT22;16599;47.078;15.536;2022-10-16T18:33:42;11.70;99.90
29687;DHT22;16599;47.078;15.536;2022-10-16T18:36:19;11.70;99.90
29687;DHT22;16599;47.078;15.536;2022-10-16T18:38:47;11.70;99.90
29687;DHT22;16599;47.078;15.536;2022-10-16T18:41:42;11.60;99.90
29687;DHT22;16599;47.078;15.536;2022-10-16T18:44:13;11.60;99.90
29687;DHT22;16599;47.078;15.536;2022-10-16T18:46:40;11.50;99.90
29687;DHT22;16599;47.078;15.536;2022-10-16T18:49:07;11.70;99.90
29687;DHT22;16599;47.078;15.536;2022-10-16T18:51:36;11.90;99.90
29687;DHT22;16599;47.078;15.536;2022-10-16T18:54:07;11.70;99.90
29687;DHT22;16599;47.078;15.536;2022-10-16T18:56:35;11.60;99.90
29687;DHT22;16599;47.078;15.536;2022-10-16T18:59:03;11.70;99.90